Time;durP1;ratioP1;P1;durP2;ratioP2;P2;SDS_P1;SDS_P2;PMS_P1;PMS_P2;Temp;Humidity;BMP_temperature;BMP_pressure;BME280_temperature;BME280_humidity;BME280_pressure;Samples;Min_cycle;Max_cycle;Signal;HPM_P1;HPM_P2
2023/06/07 00:02:11;;;;;;;16.83;7.53;;;;;;;17.62;71.53;101054.31;5037103;28;20131;-78
2023/06/07 00:04:39;;;;;;;11.77;7.40;;;;;;;17.61;71.90;101049.22;5046259;28;20206;-77
2023/06/07 00:07:06;;;;;;;13.27;7.05;;;;;;;17.66;71.92;101058.25;5039737;28;20232;-77
2023/06/07 00:09:33;;;;;;;9.60;7.75;;;;;;;17.64;72.15;101054.13;5045946;28;20084;-77
2023/06/07 00:12:00;;;;;;;13.63;7.60;;;;;;;17.62;72.62;101061.44;5038095;28;20049;-76
2023/06/07 00:14:26;;;;;;;13.43;8.10;;;;;;;17.59;73.11;101055.50;5045399;28;20087;-77
2023/06/07 00:16:54;;;;;;;10.05;7.70;;;;;;;17.69;73.34;101065.81;5042783;28;21298;-76
2023/06/07 00:19:25;;;;;;;13.68;7.88;;;;;;;17.73;73.83;101058.28;5049121;28;20063;-79
2023/06/07 00:21:53;;;;;;;14.75;8.65;;;;;;;17.84;74.13;101057.78;5043916;28;20064;-78
2023/06/07 00:24:19;;;;;;;11.93;8.88;;;;;;;17.94;74.52;101060.09;5049174;28;20072;-77
2023/06/07 00:26:46;;;;;;;15.40;9.40;;;;;;;17.98;74.73;101067.41;5040460;28;20097;-78
2023/06/07 00:29:14;;;;;;;16.40;9.80;;;;;;;18.00;74.76;101056.63;5042218;28;20051;-78
2023/06/07 00:31:41;;;;;;;10.35;8.57;;;;;;;18.00;74.98;101064.56;5041969;28;20064;-78
2023/06/07 00:34:08;;;;;;;9.65;8.43;;;;;;;18.02;75.27;101058.09;5048280;28;20052;-77
2023/06/07 00:36:35;;;;;;;11.60;9.35;;;;;;;18.13;75.07;101060.19;5048587;28;20136;-77
2023/06/07 00:39:03;;;;;;;17.30;9.52;;;;;;;18.11;75.18;101051.63;5040639;28;20085;-78
2023/06/07 00:41:30;;;;;;;14.40;9.20;;;;;;;18.18;75.26;101051.66;5031400;28;20053;-78
2023/06/07 00:43:56;;;;;;;15.48;9.23;;;;;;;18.20;75.47;101054.94;5045435;28;20116;-77
2023/06/07 00:46:25;;;;;;;17.20;10.00;;;;;;;18.16;75.50;101056.34;5044027;28;20127;-78
2023/06/07 00:48:52;;;;;;;15.55;9.48;;;;;;;18.14;75.55;101061.00;5046245;28;20136;-78
2023/06/07 00:51:19;;;;;;;14.18;9.32;;;;;;;18.06;75.74;101064.63;5048643;28;20061;-78
2023/06/07 00:53:48;;;;;;;14.80;9.25;;;;;;;18.04;75.80;101056.06;5045021;28;20099;-76
2023/06/07 00:56:17;;;;;;;15.18;9.48;;;;;;;17.97;76.00;101065.78;5034896;28;20049;-77
2023/06/07 00:58:45;;;;;;;11.13;9.45;;;;;;;17.94;76.11;101062.72;5053797;28;20060;-78
2023/06/07 01:01:12;;;;;;;14.40;9.57;;;;;;;17.94;76.10;101065.38;5055936;28;20048;-78
2023/06/07 01:03:39;;;;;;;14.60;9.07;;;;;;;17.95;76.15;101061.72;5070955;28;20045;-79
2023/06/07 01:06:06;;;;;;;10.60;9.27;;;;;;;17.94;76.17;101062.72;5066902;28;20079;-78
2023/06/07 01:08:34;;;;;;;12.15;9.13;;;;;;;17.95;76.15;101065.19;5052572;28;20049;-80
2023/06/07 01:11:01;;;;;;;11.20;8.93;;;;;;;17.89;76.09;101058.00;5053292;28;20076;-79
2023/06/07 01:13:31;;;;;;;14.68;9.55;;;;;;;17.93;76.07;101066.41;5051061;28;20084;-79
2023/06/07 01:15:58;;;;;;;12.98;9.40;;;;;;;17.97;75.86;101059.66;5037179;28;20073;-78
2023/06/07 01:18:26;;;;;;;12.02;9.23;;;;;;;17.97;75.84;101064.97;5048073;28;20068;-78
2023/06/07 01:20:56;;;;;;;12.60;9.52;;;;;;;17.89;75.96;101065.97;5039906;28;20136;-78
2023/06/07 01:23:29;;;;;;;12.75;9.32;;;;;;;17.87;76.19;101062.69;5049323;28;20055;-77
2023/06/07 01:25:57;;;;;;;10.80;9.55;;;;;;;17.87;76.25;101067.97;5040377;28;20126;-77
2023/06/07 01:28:25;;;;;;;14.02;9.25;;;;;;;17.82;76.34;101055.31;5048796;28;20171;-76
2023/06/07 01:30:53;;;;;;;13.60;9.23;;;;;;;17.87;76.50;101067.97;5042275;28;20521;-78
2023/06/07 01:33:20;;;;;;;14.68;9.70;;;;;;;17.83;76.76;101059.59;5049830;28;20056;-78
2023/06/07 01:35:48;;;;;;;16.80;9.38;;;;;;;17.87;76.99;101057.38;5047666;28;20045;-77
2023/06/07 01:38:17;;;;;;;11.93;8.95;;;;;;;17.92;76.89;101056.81;5044257;28;20147;-77
2023/06/07 01:40:46;;;;;;;13.32;9.35;;;;;;;17.98;76.88;101058.66;5042837;28;20559;-78
2023/06/07 01:43:14;;;;;;;16.30;9.18;;;;;;;17.94;77.04;101057.44;5048168;28;20422;-79
2023/06/07 01:45:41;;;;;;;11.75;9.55;;;;;;;17.82;77.38;101057.16;5040387;28;20108;-79
2023/06/07 01:48:08;;;;;;;15.95;10.30;;;;;;;17.77;77.67;101068.31;5045660;28;20446;-77
2023/06/07 01:50:34;;;;;;;14.40;9.40;;;;;;;17.62;78.25;101051.66;5040749;28;20563;-77
2023/06/07 01:53:01;;;;;;;14.68;9.93;;;;;;;17.58;78.69;101055.69;5043887;28;20091;-77
2023/06/07 01:55:28;;;;;;;15.63;9.95;;;;;;;17.55;79.05;101056.91;5041264;28;20422;-77
2023/06/07 01:58:06;;;;;;;14.48;10.35;;;;;;;17.56;79.32;101057.72;5042063;28;20495;-76
2023/06/07 02:00:41;;;;;;;13.48;10.15;;;;;;;17.53;79.51;101050.97;5041175;28;20170;-78
2023/06/07 02:03:16;;;;;;;12.05;10.52;;;;;;;17.57;79.60;101062.00;5042418;28;20436;-78
2023/06/07 02:05:48;;;;;;;14.85;10.10;;;;;;;17.56;79.99;101047.94;5043592;28;20049;-77
2023/06/07 02:08:20;;;;;;;11.57;9.98;;;;;;;17.59;79.86;101049.41;5045106;28;20063;-77
2023/06/07 02:10:47;;;;;;;15.20;10.95;;;;;;;17.67;79.74;101053.78;5040218;28;20481;-77
2023/06/07 02:13:17;;;;;;;13.98;10.32;;;;;;;17.68;79.83;101050.13;5044585;28;20080;-77
2023/06/07 02:15:45;;;;;;;16.48;10.90;;;;;;;17.66;79.78;101052.13;5039691;28;20055;-76
2023/06/07 02:18:13;;;;;;;12.55;10.18;;;;;;;17.69;79.87;101049.09;5043233;28;20467;-78
2023/06/07 02:20:40;;;;;;;16.60;9.75;;;;;;;17.69;79.91;101041.16;5044795;28;20053;-78
2023/06/07 02:23:06;;;;;;;18.92;9.82;;;;;;;17.74;80.01;101038.75;5044736;28;20065;-78
2023/06/07 02:25:34;;;;;;;14.43;10.40;;;;;;;17.77;79.96;101038.38;5039898;28;20069;-78
2023/06/07 02:28:01;;;;;;;13.57;9.38;;;;;;;17.80;79.78;101048.59;5036536;28;20099;-78
2023/06/07 02:30:30;;;;;;;16.58;10.10;;;;;;;17.78;79.78;101050.59;5042562;28;20079;-78
2023/06/07 02:32:56;;;;;;;13.80;10.27;;;;;;;17.68;80.35;101052.75;5042662;28;20049;-79
2023/06/07 02:35:23;;;;;;;17.05;10.75;;;;;;;17.64;80.75;101052.28;5040840;28;20053;-77
2023/06/07 02:37:50;;;;;;;13.70;10.48;;;;;;;17.54;81.04;101049.97;5041639;28;20128;-76
2023/06/07 02:40:17;;;;;;;16.55;10.38;;;;;;;17.51;81.24;101046.88;5044507;28;20418;-77
2023/06/07 02:42:44;;;;;;;11.13;9.93;;;;;;;17.44;81.50;101052.16;5043572;28;20132;-79
2023/06/07 02:45:12;;;;;;;17.27;10.90;;;;;;;17.43;81.89;101047.06;5039082;28;20037;-78
2023/06/07 02:47:41;;;;;;;15.07;10.60;;;;;;;17.40;82.07;101042.97;5041089;28;20745;-77
2023/06/07 02:50:08;;;;;;;14.20;10.65;;;;;;;17.49;82.19;101048.91;5032000;28;20129;-78
2023/06/07 02:52:34;;;;;;;14.18;11.10;;;;;;;17.40;82.34;101050.88;5042360;28;20056;-77
2023/06/07 02:55:01;;;;;;;16.70;10.85;;;;;;;17.39;82.91;101061.66;5036434;28;20065;-77
2023/06/07 02:57:28;;;;;;;15.13;11.60;;;;;;;17.37;83.21;101053.91;5035351;28;20060;-76
2023/06/07 02:59:56;;;;;;;22.08;11.55;;;;;;;17.38;83.25;101057.38;5040204;28;20059;-76
2023/06/07 03:02:22;;;;;;;18.33;11.38;;;;;;;17.35;83.30;101061.22;5034320;28;20056;-77
2023/06/07 03:04:51;;;;;;;22.67;11.48;;;;;;;17.41;83.51;101064.94;5035604;28;20041;-77
2023/06/07 03:07:20;;;;;;;19.95;12.18;;;;;;;17.39;83.68;101061.66;5043408;28;20084;-75
2023/06/07 03:09:47;;;;;;;19.17;11.57;;;;;;;17.37;83.87;101064.50;5038911;28;20418;-77
2023/06/07 03:12:14;;;;;;;21.67;12.25;;;;;;;17.38;83.79;101062.66;5043273;28;20049;-77
2023/06/07 03:14:41;;;;;;;15.20;11.98;;;;;;;17.35;83.95;101055.94;5039945;28;20045;-75
2023/06/07 03:17:08;;;;;;;21.38;11.95;;;;;;;17.41;84.07;101065.75;5037539;28;20042;-78
2023/06/07 03:19:35;;;;;;;21.35;11.90;;;;;;;17.29;84.31;101064.63;5043512;28;20118;-77
2023/06/07 03:22:06;;;;;;;17.02;11.57;;;;;;;17.26;84.71;101057.06;5036783;28;20077;-76
2023/06/07 03:24:33;;;;;;;18.23;11.63;;;;;;;17.22;84.71;101061.91;5043237;28;20132;-78
2023/06/07 03:27:00;;;;;;;21.27;11.30;;;;;;;17.22;84.75;101058.44;5041699;28;20055;-77
2023/06/07 03:29:27;;;;;;;20.00;12.13;;;;;;;17.25;84.48;101058.88;5043454;28;20057;-78
2023/06/07 03:31:54;;;;;;;16.67;11.43;;;;;;;17.26;84.48;101051.78;5039232;28;20484;-76
2023/06/07 03:34:20;;;;;;;16.38;11.43;;;;;;;17.24;84.40;101053.78;5044829;28;20136;-76
2023/06/07 03:36:47;;;;;;;19.08;11.73;;;;;;;17.17;84.40;101051.06;5038508;28;20052;-76
2023/06/07 03:39:15;;;;;;;16.80;11.35;;;;;;;17.19;84.47;101056.19;5044977;28;20460;-78
2023/06/07 03:41:42;;;;;;;17.10;11.57;;;;;;;17.18;84.28;101060.66;5040894;28;20128;-78
2023/06/07 03:44:08;;;;;;;17.50;12.38;;;;;;;17.18;84.24;101065.13;5044545;28;20136;-78
2023/06/07 03:46:35;;;;;;;18.80;11.40;;;;;;;17.18;84.31;101057.19;5042323;28;20094;-79
2023/06/07 03:49:01;;;;;;;18.05;12.00;;;;;;;17.12;84.27;101066.69;5042785;28;20052;-77
2023/06/07 03:51:28;;;;;;;16.40;11.02;;;;;;;17.22;84.07;101066.38;5045982;28;20160;-75
2023/06/07 03:53:55;;;;;;;14.85;11.13;;;;;;;17.13;84.08;101063.03;5043773;28;20072;-79
2023/06/07 03:56:23;;;;;;;17.88;11.68;;;;;;;17.13;84.22;101070.16;5037594;28;20083;-77
2023/06/07 03:58:50;;;;;;;17.25;11.38;;;;;;;17.19;84.05;101058.81;5043739;28;20140;-76
2023/06/07 04:01:17;;;;;;;18.85;11.40;;;;;;;17.19;83.82;101069.41;5042113;28;20056;-77
2023/06/07 04:03:43;;;;;;;16.63;10.50;;;;;;;17.26;83.48;101062.34;5045047;28;20075;-76
2023/06/07 04:06:10;;;;;;;14.27;10.20;;;;;;;17.30;83.29;101066.25;5055510;28;20082;-80
2023/06/07 04:08:38;;;;;;;18.38;10.80;;;;;;;17.31;83.05;101062.59;5063404;28;20041;-78
2023/06/07 04:11:05;;;;;;;16.15;10.45;;;;;;;17.33;83.16;101073.81;5058342;28;20052;-78
2023/06/07 04:13:33;;;;;;;13.63;10.63;;;;;;;17.34;82.94;101075.47;5047147;28;20044;-78
2023/06/07 04:15:59;;;;;;;15.70;11.48;;;;;;;17.23;82.97;101068.03;5031233;28;20128;-78
2023/06/07 04:18:26;;;;;;;13.82;10.02;;;;;;;17.17;83.22;101069.59;5042686;28;20132;-79
2023/06/07 04:20:52;;;;;;;19.42;10.00;;;;;;;17.15;83.31;101076.88;5042255;28;20503;-78
2023/06/07 04:23:20;;;;;;;14.23;10.85;;;;;;;17.19;83.28;101075.50;5046214;28;20248;-78
2023/06/07 04:25:47;;;;;;;18.92;10.60;;;;;;;17.27;83.13;101084.31;5039762;28;20398;-79
2023/06/07 04:28:14;;;;;;;16.25;10.45;;;;;;;17.26;83.09;101078.22;5040479;28;20077;-79
2023/06/07 04:30:42;;;;;;;17.17;9.98;;;;;;;17.34;82.84;101085.22;5041858;28;20095;-78
2023/06/07 04:33:13;;;;;;;15.60;10.10;;;;;;;17.30;82.87;101073.38;5045897;28;20515;-80
2023/06/07 04:35:41;;;;;;;14.88;10.25;;;;;;;17.26;82.82;101072.94;5042549;28;20075;-81
2023/06/07 04:38:08;;;;;;;19.90;10.25;;;;;;;17.24;83.04;101077.59;5048438;28;20087;-80
2023/06/07 04:40:41;;;;;;;15.73;10.48;;;;;;;17.27;82.76;101077.22;5042578;28;20132;-79
2023/06/07 04:43:08;;;;;;;17.10;10.68;;;;;;;17.27;82.97;101077.22;5039387;28;20057;-80
2023/06/07 04:45:40;;;;;;;20.48;10.98;;;;;;;17.33;82.76;101078.28;5052116;22;20052;-78
2023/06/07 04:48:08;;;;;;;18.65;10.38;;;;;;;17.40;82.29;101085.28;5012627;28;20080;-79
2023/06/07 04:50:34;;;;;;;15.18;9.68;;;;;;;17.43;82.28;101090.19;5010967;28;20050;-80
2023/06/07 04:53:02;;;;;;;12.50;10.63;;;;;;;17.46;82.06;101084.53;5015427;28;20142;-80
2023/06/07 04:55:30;;;;;;;14.98;9.65;;;;;;;17.56;81.90;101079.72;5017622;28;20048;-80
2023/06/07 04:57:58;;;;;;;16.48;9.98;;;;;;;17.52;81.85;101094.31;5007680;28;20500;-78
2023/06/07 05:00:25;;;;;;;15.57;9.88;;;;;;;17.49;82.14;101099.16;5001877;28;20042;-77
2023/06/07 05:02:52;;;;;;;13.07;10.20;;;;;;;17.46;81.92;101092.47;4994934;28;20058;-77
2023/06/07 05:05:21;;;;;;;17.40;10.45;;;;;;;17.52;81.83;101098.78;5007296;28;20524;-77
2023/06/07 05:07:49;;;;;;;14.65;9.85;;;;;;;17.52;81.87;101094.31;4995509;28;20431;-78
2023/06/07 05:10:16;;;;;;;14.70;9.85;;;;;;;17.52;81.82;101090.84;5010344;28;20133;-78
2023/06/07 05:12:43;;;;;;;16.02;10.75;;;;;;;17.62;81.78;101103.78;4996220;28;20471;-77
2023/06/07 05:15:11;;;;;;;14.98;10.00;;;;;;;17.64;81.92;101091.16;4995990;28;20058;-78
2023/06/07 05:17:38;;;;;;;18.70;10.68;;;;;;;17.70;81.46;101098.38;4994345;28;20061;-77
2023/06/07 05:20:10;;;;;;;18.58;9.73;;;;;;;17.72;82.11;101099.00;4994189;28;20409;-78
2023/06/07 05:22:39;;;;;;;14.02;9.38;;;;;;;17.77;81.94;101101.91;5008863;28;20058;-78
2023/06/07 05:25:08;;;;;;;15.75;10.30;;;;;;;17.77;81.79;101104.56;5007669;28;20105;-77
2023/06/07 05:27:35;;;;;;;15.00;9.65;;;;;;;17.77;81.40;101110.66;5006490;28;20050;-77
2023/06/07 05:30:02;;;;;;;16.70;10.90;;;;;;;17.75;81.47;101099.44;5001895;28;20046;-77
2023/06/07 05:32:28;;;;;;;17.50;9.80;;;;;;;17.85;81.46;101094.66;5005345;28;20477;-78
2023/06/07 05:34:57;;;;;;;19.63;9.73;;;;;;;17.94;81.24;101111.22;4995292;28;20046;-77
2023/06/07 05:37:24;;;;;;;16.45;9.55;;;;;;;18.10;80.80;101105.59;5009301;28;20074;-78
2023/06/07 05:39:52;;;;;;;15.45;9.73;;;;;;;18.29;80.40;101105.94;5000906;28;20089;-78
2023/06/07 05:42:20;;;;;;;13.40;10.13;;;;;;;18.44;80.21;101098.66;5009939;28;21897;-78
2023/06/07 05:44:46;;;;;;;17.88;9.57;;;;;;;18.46;79.82;101107.22;5003162;28;20575;-77
2023/06/07 05:47:13;;;;;;;15.90;10.18;;;;;;;18.34;80.33;101114.13;4995340;28;20050;-77
2023/06/07 05:49:40;;;;;;;18.38;9.98;;;;;;;18.24;80.59;101114.47;4995154;28;20234;-76
2023/06/07 05:52:08;;;;;;;14.20;9.48;;;;;;;18.17;81.27;101124.19;5009007;28;20424;-78
2023/06/07 05:54:34;;;;;;;22.38;10.60;;;;;;;17.97;81.57;101117.91;4994507;28;20082;-77
2023/06/07 05:57:02;;;;;;;14.60;9.90;;;;;;;17.86;81.69;101117.47;5010584;28;20042;-77
2023/06/07 05:59:29;;;;;;;16.08;9.75;;;;;;;17.77;81.89;101121.25;5012401;28;20076;-77
2023/06/07 06:01:56;;;;;;;18.98;10.15;;;;;;;17.68;82.39;101129.50;4997641;28;20156;-77
2023/06/07 06:04:22;;;;;;;15.38;10.40;;;;;;;17.59;82.53;101116.38;4993163;28;20057;-77
2023/06/07 06:06:49;;;;;;;16.90;10.30;;;;;;;17.70;82.38;101123.03;5009836;28;20053;-77
2023/06/07 06:09:16;;;;;;;15.48;10.40;;;;;;;17.77;82.36;101123.09;4994681;28;20136;-77
2023/06/07 06:11:43;;;;;;;15.82;10.80;;;;;;;17.69;82.28;101125.84;5005161;28;20054;-77
2023/06/07 06:14:11;;;;;;;16.08;9.93;;;;;;;17.63;82.54;101124.75;5007820;28;20094;-76
2023/06/07 06:16:38;;;;;;;14.10;10.00;;;;;;;17.65;82.54;101128.06;4993908;28;20113;-77
2023/06/07 06:19:04;;;;;;;19.85;10.35;;;;;;;17.64;82.33;101128.22;5008538;28;20133;-77
2023/06/07 06:21:31;;;;;;;18.30;10.73;;;;;;;17.73;82.58;101116.53;4992570;28;20400;-77
2023/06/07 06:23:57;;;;;;;17.90;10.55;;;;;;;17.67;82.38;101122.59;5000693;28;20207;-77
2023/06/07 06:26:25;;;;;;;18.48;11.07;;;;;;;17.74;82.19;101123.47;4997161;28;20054;-76
2023/06/07 06:28:51;;;;;;;15.82;10.00;;;;;;;17.76;82.31;101126.72;4999474;28;20053;-77
2023/06/07 06:31:19;;;;;;;21.73;10.65;;;;;;;17.75;82.36;101125.91;5002400;28;20130;-76
2023/06/07 06:33:52;;;;;;;14.30;10.48;;;;;;;17.69;82.37;101128.50;5002543;28;20056;-76
2023/06/07 06:36:20;;;;;;;17.67;10.27;;;;;;;17.73;82.54;101140.34;5003224;28;20444;-77
2023/06/07 06:42:10;;;;;;;18.45;10.38;;;;;;;17.90;83.49;101141.72;4989381;28;20096;-76
2023/06/07 06:44:56;;;;;;;14.98;11.05;;;;;;;17.72;84.99;101147.47;5004878;28;20121;-78
2023/06/07 06:47:25;;;;;;;18.50;12.00;;;;;;;17.49;86.78;101160.03;4993290;28;20046;-78
2023/06/07 06:49:53;;;;;;;20.17;11.35;;;;;;;17.48;88.66;101151.31;4991453;28;20539;-76
2023/06/07 06:52:20;;;;;;;16.08;11.77;;;;;;;17.44;90.77;101163.25;5005688;28;20579;-76
2023/06/07 06:54:47;;;;;;;23.48;12.13;;;;;;;17.35;91.61;101156.44;5000725;28;20480;-77
2023/06/07 06:57:28;;;;;;;23.88;12.20;;;;;;;17.39;92.32;101157.72;5003682;28;20476;-78
2023/06/07 07:00:04;;;;;;;18.13;12.45;;;;;;;17.38;93.27;101161.38;5004803;28;20069;-78
2023/06/07 07:02:35;;;;;;;17.13;11.65;;;;;;;17.32;93.11;101162.09;5002006;28;20050;-78
2023/06/07 07:05:03;;;;;;;16.73;12.00;;;;;;;17.33;93.62;101160.28;5008410;28;20159;-78
2023/06/07 07:07:30;;;;;;;21.85;12.65;;;;;;;17.34;93.34;101159.28;4999501;28;20066;-77
2023/06/07 07:09:57;;;;;;;21.38;12.60;;;;;;;17.41;93.22;101166.28;4996404;28;20058;-77
2023/06/07 07:12:24;;;;;;;23.83;13.65;;;;;;;17.47;93.40;101159.44;4997033;28;20100;-77
2023/06/07 07:14:50;;;;;;;18.30;12.13;;;;;;;17.55;93.05;101156.63;5009816;28;20141;-77
2023/06/07 07:17:18;;;;;;;16.40;11.63;;;;;;;17.55;92.64;101165.38;5005584;28;20160;-77
2023/06/07 07:19:46;;;;;;;18.73;12.05;;;;;;;17.54;92.44;101176.97;5005786;28;20422;-77
2023/06/07 07:22:12;;;;;;;18.85;12.43;;;;;;;17.40;91.89;101177.88;4996227;28;20062;-77
2023/06/07 07:24:41;;;;;;;21.30;13.32;;;;;;;17.45;92.10;101178.13;4996110;28;20060;-76
2023/06/07 07:27:08;;;;;;;20.83;13.25;;;;;;;17.31;91.77;101186.91;5006519;28;20081;-77
2023/06/07 07:29:34;;;;;;;21.42;12.30;;;;;;;17.51;92.69;101192.41;4999659;28;20125;-76
2023/06/07 07:32:01;;;;;;;25.38;13.90;;;;;;;17.41;92.06;101192.75;5013932;28;20568;-77
2023/06/07 07:34:28;;;;;;;21.77;14.25;;;;;;;17.45;92.77;101198.47;5009587;28;20512;-77
2023/06/07 07:37:02;;;;;;;20.10;13.02;;;;;;;17.52;92.34;101197.50;5014990;28;20445;-77
2023/06/07 07:39:28;;;;;;;20.83;13.07;;;;;;;17.62;92.04;101210.44;5016043;28;20046;-77
2023/06/07 07:41:55;;;;;;;20.50;13.35;;;;;;;17.87;91.42;101197.69;4996715;28;20508;-76
2023/06/07 07:44:22;;;;;;;23.02;12.88;;;;;;;17.87;90.82;101200.34;4996862;28;20054;-77
2023/06/07 07:46:49;;;;;;;24.25;13.60;;;;;;;17.82;90.40;101186.84;5004677;28;20065;-77
2023/06/07 07:49:15;;;;;;;16.60;13.00;;;;;;;18.08;90.48;101205.59;5014543;28;20472;-77
2023/06/07 07:51:42;;;;;;;22.25;13.80;;;;;;;18.13;90.08;101197.91;5005019;28;20469;-77
2023/06/07 07:54:10;;;;;;;20.48;12.27;;;;;;;18.20;88.78;101193.50;5015719;28;20077;-76
2023/06/07 07:56:37;;;;;;;21.30;13.40;;;;;;;18.24;88.37;101186.78;5011268;28;20483;-76
2023/06/07 07:59:03;;;;;;;20.02;12.57;;;;;;;18.26;87.08;101183.13;4998441;28;20125;-74
2023/06/07 08:01:30;;;;;;;19.48;13.13;;;;;;;18.35;87.08;101181.97;4996056;28;20430;-76
2023/06/07 08:03:56;;;;;;;17.55;11.60;;;;;;;18.53;86.58;101190.25;5013568;28;20141;-76
2023/06/07 08:06:23;;;;;;;16.52;12.48;;;;;;;18.63;85.49;101181.97;5014988;28;20042;-76
2023/06/07 08:08:50;;;;;;;19.13;12.00;;;;;;;18.49;85.35;101178.38;5000372;28;20046;-77
2023/06/07 08:11:19;;;;;;;24.23;13.90;;;;;;;18.46;85.67;101179.59;4994987;28;20138;-77
2023/06/07 08:13:45;;;;;;;17.58;12.80;;;;;;;18.54;85.34;101168.03;5004288;28;20081;-77
2023/06/07 08:16:12;;;;;;;18.75;12.88;;;;;;;18.23;85.57;101174.56;5005667;28;20118;-76
2023/06/07 08:18:39;;;;;;;18.00;12.50;;;;;;;18.08;85.60;101179.13;5010290;28;20085;-77
2023/06/07 08:21:06;;;;;;;18.38;12.82;;;;;;;18.02;86.87;101187.00;5008316;28;20077;-77
2023/06/07 08:23:32;;;;;;;16.48;12.40;;;;;;;18.24;86.62;101186.78;5011144;28;20523;-76
2023/06/07 08:26:00;;;;;;;24.33;13.48;;;;;;;18.24;86.28;101183.34;5002672;28;20042;-77
2023/06/07 08:28:28;;;;;;;17.33;12.02;;;;;;;18.31;86.02;101184.19;5008780;28;20124;-73
2023/06/07 08:30:55;;;;;;;19.27;12.32;;;;;;;18.22;85.89;101188.81;5000206;28;20424;-75
2023/06/07 08:33:22;;;;;;;22.95;13.55;;;;;;;18.26;86.35;101185.78;5001012;28;20485;-77
2023/06/07 08:35:49;;;;;;;18.80;13.23;;;;;;;18.48;86.35;101200.59;5010009;28;20128;-75
2023/06/07 08:38:15;;;;;;;17.80;12.90;;;;;;;18.48;85.73;101195.31;5010263;28;20092;-75
2023/06/07 08:40:42;;;;;;;23.48;13.63;;;;;;;18.36;85.29;101191.56;5002394;28;20478;-75
2023/06/07 08:43:09;;;;;;;16.55;12.70;;;;;;;18.40;85.45;101198.13;5004747;28;20129;-73
2023/06/07 08:45:37;;;;;;;16.40;12.68;;;;;;;18.41;85.62;101199.75;5002006;28;20067;-73
2023/06/07 08:48:07;;;;;;;19.25;13.15;;;;;;;18.45;85.35;101203.63;5003838;28;20054;-76
2023/06/07 08:50:33;;;;;;;20.60;13.15;;;;;;;18.52;85.23;101191.25;5013648;28;20054;-74
2023/06/07 08:53:05;;;;;;;20.30;13.15;;;;;;;18.48;85.35;101201.41;5001651;28;20141;-76
2023/06/07 08:55:34;;;;;;;20.40;13.10;;;;;;;18.65;84.51;101183.41;5006814;28;20061;-75
2023/06/07 08:58:01;;;;;;;20.08;13.63;;;;;;;18.78;83.89;101180.84;5005101;28;20297;-74
2023/06/07 09:00:29;;;;;;;19.33;13.30;;;;;;;18.92;83.59;101186.19;5005578;28;20050;-75
2023/06/07 09:02:57;;;;;;;19.27;13.93;;;;;;;18.86;82.84;101188.63;5008113;28;20077;-76
2023/06/07 09:05:24;;;;;;;19.58;13.65;;;;;;;19.11;82.77;101183.63;5005389;28;20141;-75
2023/06/07 09:07:52;;;;;;;18.75;13.68;;;;;;;19.18;82.12;101191.63;5006366;28;20053;-76
2023/06/07 09:10:19;;;;;;;22.80;14.80;;;;;;;18.94;82.12;101184.16;5006227;28;20060;-77
2023/06/07 09:12:46;;;;;;;20.20;14.70;;;;;;;19.39;81.10;101188.00;5007466;28;20132;-75
2023/06/07 09:15:17;;;;;;;20.35;14.60;;;;;;;19.49;80.27;101183.94;5006746;28;20050;-75
2023/06/07 09:17:52;;;;;;;21.08;14.32;;;;;;;19.72;79.27;101182.78;5004307;28;20050;-74
2023/06/07 09:20:24;;;;;;;23.80;14.10;;;;;;;20.16;78.17;101179.53;4998944;28;20053;-77
2023/06/07 09:23:01;;;;;;;19.40;14.10;;;;;;;20.51;77.32;101182.78;5002330;28;20136;-78
2023/06/07 09:25:28;;;;;;;18.40;13.88;;;;;;;20.50;76.36;101175.81;5008365;28;20050;-77
2023/06/07 09:27:55;;;;;;;20.98;14.65;;;;;;;20.14;77.30;101182.41;5008436;28;20085;-77
2023/06/07 09:30:22;;;;;;;22.08;14.52;;;;;;;20.29;77.79;101176.06;5000227;28;20129;-76
2023/06/07 09:32:49;;;;;;;22.17;14.15;;;;;;;20.48;77.39;101183.19;5009138;28;20129;-77
2023/06/07 09:35:21;;;;;;;24.08;13.82;;;;;;;20.06;77.29;101173.81;5002079;28;20049;-77
2023/06/07 09:37:52;;;;;;;21.73;14.52;;;;;;;19.93;78.32;101185.25;5001975;28;20054;-77
2023/06/07 09:40:19;;;;;;;21.55;13.73;;;;;;;19.62;79.04;101182.38;5008128;28;20050;-77
2023/06/07 09:42:57;;;;;;;17.80;13.68;;;;;;;19.40;79.75;101194.94;5008688;28;20050;-77
2023/06/07 09:45:24;;;;;;;20.77;14.17;;;;;;;18.68;81.74;101190.97;5001224;28;20053;-75
2023/06/07 09:48:01;;;;;;;21.55;14.18;;;;;;;18.49;83.68;101183.69;5000409;28;20108;-76
2023/06/07 09:50:29;;;;;;;21.23;14.38;;;;;;;18.51;84.60;101184.31;5002713;28;20108;-77
2023/06/07 09:52:58;;;;;;;22.50;15.05;;;;;;;18.48;84.93;101195.31;4997834;28;20475;-75
2023/06/07 09:55:27;;;;;;;15.07;13.10;;;;;;;18.42;84.31;101182.84;5002594;28;20076;-76
2023/06/07 09:57:55;;;;;;;19.08;14.73;;;;;;;18.54;83.62;101186.56;5012246;28;20440;-77
2023/06/07 10:00:21;;;;;;;22.60;13.75;;;;;;;18.54;83.81;101178.63;5006806;28;20073;-75
2023/06/07 10:02:50;;;;;;;16.52;13.65;;;;;;;18.51;84.06;101190.44;5010366;28;20045;-77
2023/06/07 10:05:21;;;;;;;21.05;13.45;;;;;;;18.48;84.59;101190.00;5008498;28;20124;-77
2023/06/07 10:07:49;;;;;;;19.63;14.32;;;;;;;18.53;84.15;101187.59;5002169;28;20392;-78
2023/06/07 10:10:22;;;;;;;20.38;14.50;;;;;;;18.74;83.77;101181.44;4999477;28;20056;-76
2023/06/07 10:12:51;;;;;;;23.50;13.95;;;;;;;18.77;83.62;101183.69;5002836;28;20042;-77
2023/06/07 10:15:24;;;;;;;20.05;14.70;;;;;;;18.99;83.78;101176.44;5000566;28;20053;-76
2023/06/07 10:17:55;;;;;;;23.65;14.80;;;;;;;19.15;82.69;101168.13;5007213;28;20056;-76
2023/06/07 10:20:25;;;;;;;18.35;14.00;;;;;;;18.85;82.67;101167.63;5009361;28;20046;-76
2023/06/07 10:22:57;;;;;;;21.70;15.88;;;;;;;18.68;82.88;101168.97;5004056;28;20056;-76
2023/06/07 10:25:29;;;;;;;21.17;14.93;;;;;;;18.89;83.46;101169.69;4999195;28;20322;-76
2023/06/07 10:28:09;;;;;;;23.65;16.25;;;;;;;19.05;82.37;101154.44;5003551;28;20042;-76
2023/06/07 10:30:40;;;;;;;23.13;14.60;;;;;;;18.93;81.97;101169.25;4996390;28;20066;-76
2023/06/07 10:33:09;;;;;;;20.25;15.18;;;;;;;18.42;82.90;101166.97;5004351;28;20042;-76
2023/06/07 10:35:38;;;;;;;20.27;14.93;;;;;;;18.32;84.02;101185.03;5006223;28;20056;-76
2023/06/07 10:38:05;;;;;;;24.50;16.10;;;;;;;18.29;83.92;101174.81;5005432;28;20056;-76
2023/06/07 10:40:33;;;;;;;20.20;14.93;;;;;;;18.33;84.73;101187.47;5002942;28;20085;-76
2023/06/07 10:43:02;;;;;;;23.75;14.88;;;;;;;18.33;84.93;101178.72;5004681;28;20100;-76
2023/06/07 10:45:29;;;;;;;25.67;16.40;;;;;;;18.32;84.51;101169.13;5006813;28;20132;-76
2023/06/07 10:47:56;;;;;;;22.27;15.40;;;;;;;18.58;83.71;101170.09;5023741;28;20041;-77
2023/06/07 10:50:47;;;;;;;21.63;15.05;;;;;;;18.84;82.83;101166.81;5024348;28;20041;-79
2023/06/07 10:53:14;;;;;;;24.33;15.75;;;;;;;18.84;82.15;101166.81;5019002;28;20053;-79
2023/06/07 10:55:42;;;;;;;23.23;15.68;;;;;;;18.99;82.12;101163.16;5014152;28;20046;-79
2023/06/07 10:58:27;;;;;;;21.50;16.20;;;;;;;19.29;80.58;101161.88;5024883;28;20042;-78
2023/06/07 11:00:55;;;;;;;21.95;15.30;;;;;;;19.87;79.54;101164.81;5032783;28;20064;-79
2023/06/07 11:03:41;;;;;;;24.52;15.75;;;;;;;20.02;78.32;101160.13;5021946;28;20653;-78
2023/06/07 11:06:09;;;;;;;24.60;15.80;;;;;;;20.30;77.56;101161.75;5020671;28;20118;-78
2023/06/07 11:08:37;;;;;;;28.38;17.17;;;;;;;20.34;78.19;101154.97;5015340;28;20065;-78
2023/06/07 11:11:27;;;;;;;25.88;16.73;;;;;;;20.14;77.46;101147.84;5025126;28;20114;-78
2023/06/07 11:14:10;;;;;;;23.95;17.52;;;;;;;20.36;77.64;101152.91;5023055;28;20065;-77
2023/06/07 11:16:37;;;;;;;22.35;17.00;;;;;;;20.26;78.36;101157.88;5024943;28;20046;-79
2023/06/07 11:19:08;;;;;;;21.88;17.42;;;;;;;20.57;77.66;101160.69;5022412;28;20493;-79
2023/06/07 11:22:05;;;;;;;26.42;18.77;;;;;;;20.23;78.12;101152.97;5019398;28;20042;-76